sensor_id;sensor_type;location;lat;lon;timestamp;P1;durP1;ratioP1;P2;durP2;ratioP2
58152;SDS011;43967;51.634;5.566;2023-02-27T00:01:15;5.47;;;1.30;;
58152;SDS011;43967;51.634;5.566;2023-02-27T00:06:37;5.37;;;1.40;;
58152;SDS011;43967;51.634;5.566;2023-02-27T00:11:58;5.32;;;1.40;;
58152;SDS011;43967;51.634;5.566;2023-02-27T00:17:19;5.57;;;1.35;;
58152;SDS011;43967;51.634;5.566;2023-02-27T00:22:41;6.40;;;1.43;;
58152;SDS011;43967;51.634;5.566;2023-02-27T00:28:03;5.72;;;1.60;;
58152;SDS011;43967;51.634;5.566;2023-02-27T00:33:24;5.00;;;1.33;;
58152;SDS011;43967;51.634;5.566;2023-02-27T00:38:45;5.60;;;1.70;;
58152;SDS011;43967;51.634;5.566;2023-02-27T00:44:07;5.00;;;1.40;;
58152;SDS011;43967;51.634;5.566;2023-02-27T00:49:28;5.10;;;1.40;;
58152;SDS011;43967;51.634;5.566;2023-02-27T00:54:49;4.90;;;1.40;;
58152;SDS011;43967;51.634;5.566;2023-02-27T01:00:11;5.03;;;1.33;;
58152;SDS011;43967;51.634;5.566;2023-02-27T01:05:32;5.07;;;1.67;;
58152;SDS011;43967;51.634;5.566;2023-02-27T01:10:54;5.10;;;1.38;;
58152;SDS011;43967;51.634;5.566;2023-02-27T01:16:16;4.83;;;1.30;;
58152;SDS011;43967;51.634;5.566;2023-02-27T01:21:37;4.93;;;1.20;;
58152;SDS011;43967;51.634;5.566;2023-02-27T01:26:59;4.85;;;1.35;;
58152;SDS011;43967;51.634;5.566;2023-02-27T01:32:20;4.97;;;1.20;;
58152;SDS011;43967;51.634;5.566;2023-02-27T01:37:41;4.95;;;1.27;;
58152;SDS011;43967;51.634;5.566;2023-02-27T01:43:04;4.88;;;1.30;;
58152;SDS011;43967;51.634;5.566;2023-02-27T01:48:28;5.63;;;1.40;;
58152;SDS011;43967;51.634;5.566;2023-02-27T01:53:55;5.07;;;1.77;;
58152;SDS011;43967;51.634;5.566;2023-02-27T01:59:17;5.00;;;1.50;;
58152;SDS011;43967;51.634;5.566;2023-02-27T02:04:39;4.88;;;1.20;;
58152;SDS011;43967;51.634;5.566;2023-02-27T02:10:01;5.43;;;1.30;;
58152;SDS011;43967;51.634;5.566;2023-02-27T02:15:24;4.78;;;1.38;;
58152;SDS011;43967;51.634;5.566;2023-02-27T02:26:56;4.77;;;1.17;;
58152;SDS011;43967;51.634;5.566;2023-02-27T02:38:23;4.50;;;1.15;;
58152;SDS011;43967;51.634;5.566;2023-02-27T02:55:34;6.22;;;1.38;;
58152;SDS011;43967;51.634;5.566;2023-02-27T03:01:06;5.63;;;1.10;;
58152;SDS011;43967;51.634;5.566;2023-02-27T03:06:33;4.97;;;1.20;;
58152;SDS011;43967;51.634;5.566;2023-02-27T03:12:01;4.88;;;1.40;;
58152;SDS011;43967;51.634;5.566;2023-02-27T03:23:12;5.23;;;1.30;;
58152;SDS011;43967;51.634;5.566;2023-02-27T03:28:39;5.43;;;1.27;;
58152;SDS011;43967;51.634;5.566;2023-02-27T03:34:23;5.03;;;1.52;;
58152;SDS011;43967;51.634;5.566;2023-02-27T03:40:36;4.73;;;1.30;;
58152;SDS011;43967;51.634;5.566;2023-02-27T03:45:53;5.50;;;1.30;;
58152;SDS011;43967;51.634;5.566;2023-02-27T03:51:24;5.53;;;1.48;;
58152;SDS011;43967;51.634;5.566;2023-02-27T03:57:05;5.45;;;1.55;;
58152;SDS011;43967;51.634;5.566;2023-02-27T04:02:27;4.17;;;1.20;;
58152;SDS011;43967;51.634;5.566;2023-02-27T04:14:03;4.85;;;1.25;;
58152;SDS011;43967;51.634;5.566;2023-02-27T04:19:40;4.90;;;1.30;;
58152;SDS011;43967;51.634;5.566;2023-02-27T04:25:16;4.85;;;1.20;;
58152;SDS011;43967;51.634;5.566;2023-02-27T04:30:45;5.40;;;1.70;;
58152;SDS011;43967;51.634;5.566;2023-02-27T04:36:33;4.37;;;1.40;;
58152;SDS011;43967;51.634;5.566;2023-02-27T04:42:05;4.80;;;1.17;;
58152;SDS011;43967;51.634;5.566;2023-02-27T04:47:33;5.25;;;1.50;;
58152;SDS011;43967;51.634;5.566;2023-02-27T04:53:06;5.15;;;1.58;;
58152;SDS011;43967;51.634;5.566;2023-02-27T04:58:35;4.90;;;1.17;;
58152;SDS011;43967;51.634;5.566;2023-02-27T05:04:03;4.78;;;1.17;;
58152;SDS011;43967;51.634;5.566;2023-02-27T05:09:30;4.57;;;1.20;;
58152;SDS011;43967;51.634;5.566;2023-02-27T05:15:08;4.90;;;1.30;;
58152;SDS011;43967;51.634;5.566;2023-02-27T05:20:39;5.78;;;1.20;;
58152;SDS011;43967;51.634;5.566;2023-02-27T05:26:18;4.82;;;1.27;;
58152;SDS011;43967;51.634;5.566;2023-02-27T05:32:18;4.77;;;1.23;;
58152;SDS011;43967;51.634;5.566;2023-02-27T05:43:35;4.50;;;1.30;;
58152;SDS011;43967;51.634;5.566;2023-02-27T05:49:17;5.68;;;1.75;;
58152;SDS011;43967;51.634;5.566;2023-02-27T05:55:03;4.67;;;1.00;;
58152;SDS011;43967;51.634;5.566;2023-02-27T06:00:43;4.38;;;1.15;;
58152;SDS011;43967;51.634;5.566;2023-02-27T06:06:15;6.13;;;1.40;;
58152;SDS011;43967;51.634;5.566;2023-02-27T06:11:38;4.90;;;1.10;;
58152;SDS011;43967;51.634;5.566;2023-02-27T06:16:59;4.15;;;1.13;;
58152;SDS011;43967;51.634;5.566;2023-02-27T06:22:21;4.75;;;1.33;;
58152;SDS011;43967;51.634;5.566;2023-02-27T06:27:42;4.97;;;1.30;;
58152;SDS011;43967;51.634;5.566;2023-02-27T06:33:03;4.70;;;1.17;;
58152;SDS011;43967;51.634;5.566;2023-02-27T06:38:25;5.38;;;1.30;;
58152;SDS011;43967;51.634;5.566;2023-02-27T06:43:46;4.90;;;1.27;;
58152;SDS011;43967;51.634;5.566;2023-02-27T06:49:07;7.13;;;1.50;;
58152;SDS011;43967;51.634;5.566;2023-02-27T06:54:28;10.90;;;1.70;;
58152;SDS011;43967;51.634;5.566;2023-02-27T06:59:50;13.88;;;1.40;;
58152;SDS011;43967;51.634;5.566;2023-02-27T07:05:11;6.67;;;1.43;;
58152;SDS011;43967;51.634;5.566;2023-02-27T07:10:32;6.35;;;1.40;;
58152;SDS011;43967;51.634;5.566;2023-02-27T07:15:53;6.05;;;1.60;;
58152;SDS011;43967;51.634;5.566;2023-02-27T07:21:15;7.60;;;1.30;;
58152;SDS011;43967;51.634;5.566;2023-02-27T07:26:36;6.57;;;2.03;;
58152;SDS011;43967;51.634;5.566;2023-02-27T07:31:57;5.82;;;1.50;;
58152;SDS011;43967;51.634;5.566;2023-02-27T07:37:19;7.28;;;1.48;;
58152;SDS011;43967;51.634;5.566;2023-02-27T07:42:40;5.60;;;1.37;;
58152;SDS011;43967;51.634;5.566;2023-02-27T07:48:01;6.28;;;1.65;;
58152;SDS011;43967;51.634;5.566;2023-02-27T07:53:23;7.65;;;1.50;;
58152;SDS011;43967;51.634;5.566;2023-02-27T07:58:44;6.57;;;1.63;;
58152;SDS011;43967;51.634;5.566;2023-02-27T08:04:06;5.60;;;1.33;;
58152;SDS011;43967;51.634;5.566;2023-02-27T08:09:27;6.65;;;1.58;;
58152;SDS011;43967;51.634;5.566;2023-02-27T08:14:48;6.17;;;1.80;;
58152;SDS011;43967;51.634;5.566;2023-02-27T08:20:10;6.50;;;1.80;;
58152;SDS011;43967;51.634;5.566;2023-02-27T08:25:31;7.20;;;1.70;;
58152;SDS011;43967;51.634;5.566;2023-02-27T08:30:53;6.18;;;1.10;;
58152;SDS011;43967;51.634;5.566;2023-02-27T08:36:14;8.10;;;2.10;;
58152;SDS011;43967;51.634;5.566;2023-02-27T08:41:35;6.90;;;1.80;;
58152;SDS011;43967;51.634;5.566;2023-02-27T08:46:56;6.15;;;1.45;;
58152;SDS011;43967;51.634;5.566;2023-02-27T08:52:18;6.07;;;1.40;;
58152;SDS011;43967;51.634;5.566;2023-02-27T08:57:39;6.45;;;1.63;;
58152;SDS011;43967;51.634;5.566;2023-02-27T09:03:00;5.75;;;1.60;;
58152;SDS011;43967;51.634;5.566;2023-02-27T09:08:22;6.13;;;1.43;;
58152;SDS011;43967;51.634;5.566;2023-02-27T09:13:43;6.37;;;1.70;;
58152;SDS011;43967;51.634;5.566;2023-02-27T09:19:04;6.68;;;1.83;;
58152;SDS011;43967;51.634;5.566;2023-02-27T09:24:26;9.38;;;2.22;;
58152;SDS011;43967;51.634;5.566;2023-02-27T09:29:47;7.27;;;2.00;;
58152;SDS011;43967;51.634;5.566;2023-02-27T09:35:09;7.15;;;1.80;;
58152;SDS011;43967;51.634;5.566;2023-02-27T09:40:30;6.28;;;1.92;;
58152;SDS011;43967;51.634;5.566;2023-02-27T09:45:57;9.40;;;2.07;;
58152;SDS011;43967;51.634;5.566;2023-02-27T09:51:21;7.13;;;1.50;;
58152;SDS011;43967;51.634;5.566;2023-02-27T09:56:53;8.13;;;1.83;;
58152;SDS011;43967;51.634;5.566;2023-02-27T10:02:33;6.73;;;1.50;;
58152;SDS011;43967;51.634;5.566;2023-02-27T10:13:59;6.63;;;1.55;;
58152;SDS011;43967;51.634;5.566;2023-02-27T10:19:43;6.95;;;1.45;;
58152;SDS011;43967;51.634;5.566;2023-02-27T10:25:10;10.73;;;1.50;;
58152;SDS011;43967;51.634;5.566;2023-02-27T10:30:34;8.07;;;1.80;;
58152;SDS011;43967;51.634;5.566;2023-02-27T10:35:56;8.20;;;1.70;;
58152;SDS011;43967;51.634;5.566;2023-02-27T10:41:17;7.40;;;1.70;;
58152;SDS011;43967;51.634;5.566;2023-02-27T10:46:40;6.28;;;1.50;;
58152;SDS011;43967;51.634;5.566;2023-02-27T10:52:11;5.93;;;1.50;;
58152;SDS011;43967;51.634;5.566;2023-02-27T10:57:36;6.47;;;1.73;;
58152;SDS011;43967;51.634;5.566;2023-02-27T11:03:01;6.53;;;1.43;;
58152;SDS011;43967;51.634;5.566;2023-02-27T11:08:25;8.23;;;2.00;;
58152;SDS011;43967;51.634;5.566;2023-02-27T11:13:47;6.00;;;1.60;;
58152;SDS011;43967;51.634;5.566;2023-02-27T11:19:15;4.90;;;1.23;;
58152;SDS011;43967;51.634;5.566;2023-02-27T11:24:45;7.50;;;1.70;;
58152;SDS011;43967;51.634;5.566;2023-02-27T11:30:24;5.50;;;1.20;;
58152;SDS011;43967;51.634;5.566;2023-02-27T11:35:51;6.40;;;1.57;;
58152;SDS011;43967;51.634;5.566;2023-02-27T11:41:13;6.85;;;1.35;;
58152;SDS011;43967;51.634;5.566;2023-02-27T11:46:35;5.28;;;1.25;;
58152;SDS011;43967;51.634;5.566;2023-02-27T11:57:43;5.30;;;1.40;;
58152;SDS011;43967;51.634;5.566;2023-02-27T12:08:53;7.68;;;1.40;;
58152;SDS011;43967;51.634;5.566;2023-02-27T12:20:21;5.85;;;1.55;;
58152;SDS011;43967;51.634;5.566;2023-02-27T12:25:50;6.47;;;1.48;;
58152;SDS011;43967;51.634;5.566;2023-02-27T12:31:28;5.60;;;1.60;;
58152;SDS011;43967;51.634;5.566;2023-02-27T12:37:02;6.38;;;1.65;;
58152;SDS011;43967;51.634;5.566;2023-02-27T12:42:27;4.55;;;1.30;;
58152;SDS011;43967;51.634;5.566;2023-02-27T12:53:39;5.80;;;1.70;;
58152;SDS011;43967;51.634;5.566;2023-02-27T12:59:17;5.25;;;1.30;;
58152;SDS011;43967;51.634;5.566;2023-02-27T13:04:59;5.00;;;1.30;;
58152;SDS011;43967;51.634;5.566;2023-02-27T13:10:32;5.30;;;1.40;;
58152;SDS011;43967;51.634;5.566;2023-02-27T13:16:16;6.13;;;1.35;;
58152;SDS011;43967;51.634;5.566;2023-02-27T13:21:51;4.60;;;1.20;;
58152;SDS011;43967;51.634;5.566;2023-02-27T13:27:43;5.37;;;1.37;;
58152;SDS011;43967;51.634;5.566;2023-02-27T13:38:51;5.95;;;1.50;;
58152;SDS011;43967;51.634;5.566;2023-02-27T13:49:41;6.07;;;1.50;;
58152;SDS011;43967;51.634;5.566;2023-02-27T13:55:06;6.13;;;1.50;;
58152;SDS011;43967;51.634;5.566;2023-02-27T14:00:53;4.53;;;1.40;;
58152;SDS011;43967;51.634;5.566;2023-02-27T14:06:16;5.37;;;1.30;;
58152;SDS011;43967;51.634;5.566;2023-02-27T14:11:38;4.93;;;1.15;;
58152;SDS011;43967;51.634;5.566;2023-02-27T14:16:59;4.60;;;1.35;;
58152;SDS011;43967;51.634;5.566;2023-02-27T14:22:28;5.80;;;1.23;;
58152;SDS011;43967;51.634;5.566;2023-02-27T14:27:53;5.53;;;1.40;;
58152;SDS011;43967;51.634;5.566;2023-02-27T14:33:21;4.70;;;1.25;;
58152;SDS011;43967;51.634;5.566;2023-02-27T14:38:49;6.90;;;1.30;;
58152;SDS011;43967;51.634;5.566;2023-02-27T14:44:21;5.07;;;1.40;;
58152;SDS011;43967;51.634;5.566;2023-02-27T14:49:45;6.22;;;1.52;;
58152;SDS011;43967;51.634;5.566;2023-02-27T14:55:24;8.27;;;1.60;;
58152;SDS011;43967;51.634;5.566;2023-02-27T15:06:41;7.10;;;1.33;;
58152;SDS011;43967;51.634;5.566;2023-02-27T15:12:05;4.72;;;1.10;;
58152;SDS011;43967;51.634;5.566;2023-02-27T15:17:40;5.17;;;1.30;;
58152;SDS011;43967;51.634;5.566;2023-02-27T15:23:23;4.55;;;1.20;;
58152;SDS011;43967;51.634;5.566;2023-02-27T15:28:47;5.63;;;1.50;;
58152;SDS011;43967;51.634;5.566;2023-02-27T15:34:09;5.17;;;1.27;;
58152;SDS011;43967;51.634;5.566;2023-02-27T15:39:33;5.37;;;1.47;;
58152;SDS011;43967;51.634;5.566;2023-02-27T15:44:55;4.70;;;1.30;;
58152;SDS011;43967;51.634;5.566;2023-02-27T15:50:30;5.68;;;1.52;;
58152;SDS011;43967;51.634;5.566;2023-02-27T15:55:57;6.10;;;1.40;;
58152;SDS011;43967;51.634;5.566;2023-02-27T16:01:25;7.95;;;1.40;;
58152;SDS011;43967;51.634;5.566;2023-02-27T16:06:49;6.10;;;1.50;;
58152;SDS011;43967;51.634;5.566;2023-02-27T16:12:28;6.50;;;1.40;;
58152;SDS011;43967;51.634;5.566;2023-02-27T16:17:58;6.00;;;1.45;;
58152;SDS011;43967;51.634;5.566;2023-02-27T16:23:25;5.78;;;1.40;;
58152;SDS011;43967;51.634;5.566;2023-02-27T16:39:33;7.05;;;1.95;;
58152;SDS011;43967;51.634;5.566;2023-02-27T16:44:54;7.10;;;1.63;;
58152;SDS011;43967;51.634;5.566;2023-02-27T16:50:18;6.30;;;1.70;;
58152;SDS011;43967;51.634;5.566;2023-02-27T16:55:43;7.93;;;1.95;;
58152;SDS011;43967;51.634;5.566;2023-02-27T17:01:04;6.53;;;1.40;;
58152;SDS011;43967;51.634;5.566;2023-02-27T17:06:26;6.70;;;1.50;;
58152;SDS011;43967;51.634;5.566;2023-02-27T17:11:47;5.50;;;1.40;;
58152;SDS011;43967;51.634;5.566;2023-02-27T17:17:09;6.07;;;2.10;;
58152;SDS011;43967;51.634;5.566;2023-02-27T17:22:32;8.50;;;1.70;;
58152;SDS011;43967;51.634;5.566;2023-02-27T17:27:55;7.67;;;1.90;;
58152;SDS011;43967;51.634;5.566;2023-02-27T17:33:16;6.63;;;1.63;;
58152;SDS011;43967;51.634;5.566;2023-02-27T17:38:37;5.43;;;1.50;;
58152;SDS011;43967;51.634;5.566;2023-02-27T17:43:59;5.50;;;1.60;;
58152;SDS011;43967;51.634;5.566;2023-02-27T17:49:20;6.15;;;1.55;;
58152;SDS011;43967;51.634;5.566;2023-02-27T17:54:41;6.43;;;1.35;;
58152;SDS011;43967;51.634;5.566;2023-02-27T18:00:04;7.00;;;1.63;;
58152;SDS011;43967;51.634;5.566;2023-02-27T18:05:26;6.03;;;1.77;;
58152;SDS011;43967;51.634;5.566;2023-02-27T18:10:48;6.57;;;1.83;;
58152;SDS011;43967;51.634;5.566;2023-02-27T18:16:10;7.70;;;1.73;;
58152;SDS011;43967;51.634;5.566;2023-02-27T18:21:33;5.70;;;1.70;;
58152;SDS011;43967;51.634;5.566;2023-02-27T18:26:55;6.07;;;1.60;;
58152;SDS011;43967;51.634;5.566;2023-02-27T18:32:16;5.22;;;1.40;;
58152;SDS011;43967;51.634;5.566;2023-02-27T18:37:38;5.30;;;1.43;;
58152;SDS011;43967;51.634;5.566;2023-02-27T18:42:59;6.50;;;1.60;;
58152;SDS011;43967;51.634;5.566;2023-02-27T18:48:20;5.95;;;1.60;;
58152;SDS011;43967;51.634;5.566;2023-02-27T18:53:43;6.80;;;1.70;;
58152;SDS011;43967;51.634;5.566;2023-02-27T18:59:06;5.50;;;1.70;;
58152;SDS011;43967;51.634;5.566;2023-02-27T19:04:30;5.82;;;1.60;;
58152;SDS011;43967;51.634;5.566;2023-02-27T19:09:52;5.33;;;1.63;;
58152;SDS011;43967;51.634;5.566;2023-02-27T19:15:13;6.23;;;1.60;;
58152;SDS011;43967;51.634;5.566;2023-02-27T19:20:35;7.18;;;1.90;;
58152;SDS011;43967;51.634;5.566;2023-02-27T19:25:57;5.80;;;1.70;;
58152;SDS011;43967;51.634;5.566;2023-02-27T19:31:19;5.57;;;1.77;;
58152;SDS011;43967;51.634;5.566;2023-02-27T19:36:42;5.82;;;2.00;;
58152;SDS011;43967;51.634;5.566;2023-02-27T19:42:03;6.30;;;2.08;;
58152;SDS011;43967;51.634;5.566;2023-02-27T19:47:25;5.70;;;2.00;;
58152;SDS011;43967;51.634;5.566;2023-02-27T19:52:46;6.13;;;2.00;;
58152;SDS011;43967;51.634;5.566;2023-02-27T19:58:07;7.20;;;2.25;;
58152;SDS011;43967;51.634;5.566;2023-02-27T20:03:28;6.10;;;2.07;;
58152;SDS011;43967;51.634;5.566;2023-02-27T20:08:50;5.67;;;1.87;;
58152;SDS011;43967;51.634;5.566;2023-02-27T20:14:13;5.72;;;1.73;;
58152;SDS011;43967;51.634;5.566;2023-02-27T20:19:35;7.10;;;2.10;;
58152;SDS011;43967;51.634;5.566;2023-02-27T20:24:56;5.90;;;1.67;;
58152;SDS011;43967;51.634;5.566;2023-02-27T20:30:18;6.75;;;1.98;;
58152;SDS011;43967;51.634;5.566;2023-02-27T20:35:39;6.55;;;2.03;;
58152;SDS011;43967;51.634;5.566;2023-02-27T20:41:00;6.00;;;2.20;;
58152;SDS011;43967;51.634;5.566;2023-02-27T20:46:23;7.15;;;2.40;;
58152;SDS011;43967;51.634;5.566;2023-02-27T20:51:45;5.60;;;1.73;;
58152;SDS011;43967;51.634;5.566;2023-02-27T20:57:07;5.90;;;2.30;;
58152;SDS011;43967;51.634;5.566;2023-02-27T21:02:28;6.53;;;2.47;;
58152;SDS011;43967;51.634;5.566;2023-02-27T21:07:49;6.10;;;1.88;;
58152;SDS011;43967;51.634;5.566;2023-02-27T21:13:10;7.28;;;2.33;;
58152;SDS011;43967;51.634;5.566;2023-02-27T21:18:32;5.90;;;1.97;;
58152;SDS011;43967;51.634;5.566;2023-02-27T21:23:53;7.55;;;2.00;;
58152;SDS011;43967;51.634;5.566;2023-02-27T21:29:16;6.25;;;2.40;;
58152;SDS011;43967;51.634;5.566;2023-02-27T21:34:39;6.67;;;2.60;;
58152;SDS011;43967;51.634;5.566;2023-02-27T21:40:00;7.60;;;2.13;;
58152;SDS011;43967;51.634;5.566;2023-02-27T21:45:22;6.75;;;2.40;;
58152;SDS011;43967;51.634;5.566;2023-02-27T21:50:43;7.37;;;2.40;;
58152;SDS011;43967;51.634;5.566;2023-02-27T21:56:05;7.47;;;2.43;;
58152;SDS011;43967;51.634;5.566;2023-02-27T22:01:28;8.20;;;2.33;;
58152;SDS011;43967;51.634;5.566;2023-02-27T22:06:50;7.32;;;2.40;;
58152;SDS011;43967;51.634;5.566;2023-02-27T22:12:12;6.53;;;2.07;;
58152;SDS011;43967;51.634;5.566;2023-02-27T22:17:33;7.40;;;2.22;;
58152;SDS011;43967;51.634;5.566;2023-02-27T22:22:54;6.57;;;2.28;;
58152;SDS011;43967;51.634;5.566;2023-02-27T22:28:15;9.40;;;2.40;;
58152;SDS011;43967;51.634;5.566;2023-02-27T22:33:37;6.75;;;2.50;;
58152;SDS011;43967;51.634;5.566;2023-02-27T22:39:00;7.43;;;2.53;;
58152;SDS011;43967;51.634;5.566;2023-02-27T22:44:21;6.53;;;2.40;;
58152;SDS011;43967;51.634;5.566;2023-02-27T22:49:43;7.30;;;2.17;;
58152;SDS011;43967;51.634;5.566;2023-02-27T22:55:04;7.35;;;2.55;;
58152;SDS011;43967;51.634;5.566;2023-02-27T23:00:26;8.13;;;2.30;;
58152;SDS011;43967;51.634;5.566;2023-02-27T23:05:47;7.17;;;2.43;;
58152;SDS011;43967;51.634;5.566;2023-02-27T23:11:10;7.03;;;2.67;;
58152;SDS011;43967;51.634;5.566;2023-02-27T23:16:32;6.38;;;2.20;;
58152;SDS011;43967;51.634;5.566;2023-02-27T23:21:54;6.40;;;2.20;;
58152;SDS011;43967;51.634;5.566;2023-02-27T23:27:15;6.43;;;2.40;;
58152;SDS011;43967;51.634;5.566;2023-02-27T23:32:37;6.72;;;2.40;;
58152;SDS011;43967;51.634;5.566;2023-02-27T23:37:58;6.33;;;2.53;;
58152;SDS011;43967;51.634;5.566;2023-02-27T23:43:19;6.87;;;2.20;;
58152;SDS011;43967;51.634;5.566;2023-02-27T23:48:41;6.63;;;2.13;;
58152;SDS011;43967;51.634;5.566;2023-02-27T23:54:03;7.60;;;2.25;;
58152;SDS011;43967;51.634;5.566;2023-02-27T23:59:26;6.40;;;2.50;;
